Time;durP1;ratioP1;P1;durP2;ratioP2;P2;SDS_P1;SDS_P2;PMS_P1;PMS_P2;Temp;Humidity;BMP_temperature;BMP_pressure;BME280_temperature;BME280_humidity;BME280_pressure;Samples;Min_cycle;Max_cycle;Signal;HPM_P1;HPM_P2
2022/01/04 00:01:30;;;;;;;15.13;3.28;;;7.80;89.20;;;;;;5079799;28;20441;-47
2022/01/04 00:03:57;;;;;;;22.83;4.40;;;7.80;89.10;;;;;;5116683;28;20019;-45
2022/01/04 00:06:23;;;;;;;16.80;3.72;;;7.80;89.20;;;;;;5099506;28;20350;-48
2022/01/04 00:08:49;;;;;;;13.20;3.80;;;7.80;89.10;;;;;;5081221;28;20122;-45
2022/01/04 00:11:19;;;;;;;12.35;3.30;;;7.80;89.10;;;;;;5096952;28;20395;-47
2022/01/04 00:13:50;;;;;;;;;;;7.80;89.10;;;;;;5102895;28;20485;-50
2022/01/04 00:16:16;;;;;;;23.75;3.58;;;7.70;89.20;;;;;;5078901;28;19919;-47
2022/01/04 00:18:46;;;;;;;17.75;3.88;;;7.70;89.10;;;;;;5113479;28;20043;-46
2022/01/04 00:21:13;;;;;;;14.10;3.33;;;7.70;89.20;;;;;;5095026;28;20122;-46
2022/01/04 00:23:40;;;;;;;15.68;3.63;;;7.70;89.20;;;;;;5082094;28;20453;-46
2022/01/04 00:26:06;;;;;;;18.27;3.15;;;7.60;89.30;;;;;;5103287;28;20067;-45
2022/01/04 00:28:33;;;;;;;17.92;4.10;;;7.60;89.40;;;;;;5098096;28;20399;-45
2022/01/04 00:31:04;;;;;;;16.55;4.60;;;7.60;89.50;;;;;;5097692;28;20036;-51
2022/01/04 00:33:31;;;;;;;15.40;4.65;;;7.60;89.60;;;;;;5121313;27;20106;-45
2022/01/04 00:35:57;;;;;;;27.48;5.32;;;7.60;89.60;;;;;;5091029;28;20035;-44
2022/01/04 00:38:24;;;;;;;13.07;4.63;;;7.60;89.60;;;;;;5110360;28;20091;-46
2022/01/04 00:40:51;;;;;;;21.35;5.20;;;7.60;89.60;;;;;;5099594;28;20075;-47
2022/01/04 00:43:17;;;;;;;14.70;5.18;;;7.60;89.70;;;;;;5077996;28;20055;-48
2022/01/04 00:45:45;;;;;;;14.77;4.05;;;7.60;89.80;;;;;;5095570;28;20052;-50
2022/01/04 00:50:41;;;;;;;26.63;8.07;;;7.70;89.90;;;;;;5116415;28;20083;-46
2022/01/04 00:53:08;;;;;;;22.73;8.75;;;7.70;89.80;;;;;;5116102;28;20028;-45
2022/01/04 00:55:35;;;;;;;23.83;4.80;;;7.60;89.80;;;;;;5113314;28;20027;-51
2022/01/04 00:58:03;;;;;;;18.75;4.75;;;7.70;89.80;;;;;;5116087;28;20065;-50
2022/01/04 01:00:31;;;;;;;13.48;5.45;;;7.70;89.80;;;;;;5109948;28;20070;-49
2022/01/04 01:03:00;;;;;;;17.95;4.25;;;7.70;89.80;;;;;;5116146;28;20019;-50
2022/01/04 01:05:26;;;;;;;20.45;6.07;;;7.70;89.80;;;;;;5105811;28;20039;-48
2022/01/04 01:07:56;;;;;;;16.25;5.03;;;7.70;89.80;;;;;;5112085;28;20337;-46
2022/01/04 01:10:47;;;;;;;13.48;4.28;;;7.70;89.70;;;;;;5114227;28;20024;-49
2022/01/04 01:13:14;;;;;;;15.80;4.40;;;7.70;89.70;;;;;;5115074;28;20115;-50
2022/01/04 01:15:43;;;;;;;20.27;6.55;;;7.70;89.70;;;;;;5110856;28;20043;-45
2022/01/04 01:18:09;;;;;;;18.30;5.13;;;7.80;89.70;;;;;;5114977;28;20022;-45
2022/01/04 01:20:36;;;;;;;22.70;6.47;;;7.80;89.70;;;;;;5110394;28;20682;-47
2022/01/04 01:23:04;;;;;;;15.73;5.25;;;7.80;89.60;;;;;;5115507;28;20091;-44
2022/01/04 01:25:33;;;;;;;24.58;6.40;;;7.80;89.60;;;;;;5091718;28;20028;-46
2022/01/04 01:27:59;;;;;;;18.83;5.78;;;7.90;89.60;;;;;;5095314;28;20124;-46
2022/01/04 01:30:28;;;;;;;15.07;5.53;;;7.80;89.60;;;;;;5103549;28;20420;-47
2022/01/04 01:32:56;;;;;;;21.13;7.32;;;7.80;89.70;;;;;;5105474;27;20091;-47
2022/01/04 01:35:24;;;;;;;21.08;6.50;;;7.90;89.60;;;;;;5127528;27;20186;-50
2022/01/04 01:37:51;;;;;;;23.92;6.85;;;7.90;89.60;;;;;;5093787;28;20032;-46
2022/01/04 01:40:18;;;;;;;20.95;6.43;;;7.80;89.60;;;;;;5079117;27;20024;-46
2022/01/04 01:42:45;;;;;;;24.85;6.80;;;7.90;89.70;;;;;;5111027;28;20023;-46
2022/01/04 01:45:21;;;;;;;23.98;6.68;;;7.80;89.70;;;;;;5110880;28;20043;-45
2022/01/04 01:47:49;;;;;;;20.95;6.00;;;7.80;89.70;;;;;;5110718;27;20376;-48
2022/01/04 01:50:17;;;;;;;21.60;7.53;;;7.80;89.70;;;;;;5088945;28;20122;-46
2022/01/04 01:52:47;;;;;;;21.08;7.15;;;7.80;89.70;;;;;;5114648;28;20041;-45
2022/01/04 01:55:17;;;;;;;15.82;6.78;;;7.80;89.70;;;;;;5088578;28;20032;-48
2022/01/04 01:57:51;;;;;;;20.45;7.63;;;7.70;89.70;;;;;;5107365;28;20663;-46
2022/01/04 02:00:22;;;;;;;18.90;6.63;;;7.70;89.60;;;;;;5112201;28;20024;-45
2022/01/04 02:02:49;;;;;;;23.55;7.93;;;7.70;89.70;;;;;;5095668;28;20084;-45
2022/01/04 02:05:16;;;;;;;21.52;7.22;;;7.70;89.60;;;;;;5112838;28;20042;-49
2022/01/04 02:07:44;;;;;;;16.35;6.72;;;7.70;89.60;;;;;;5113554;28;20097;-45
2022/01/04 02:10:11;;;;;;;19.23;6.18;;;7.70;89.70;;;;;;5096877;28;20360;-50
2022/01/04 02:12:47;;;;;;;24.88;7.50;;;7.70;89.80;;;;;;5096639;28;20036;-45
2022/01/04 02:15:19;;;;;;;22.50;7.10;;;7.70;89.80;;;;;;5113443;28;20031;-44
2022/01/04 02:17:46;;;;;;;21.40;7.32;;;7.70;89.90;;;;;;5113149;28;20425;-46
2022/01/04 02:20:14;;;;;;;23.70;7.07;;;7.80;89.90;;;;;;5114557;28;20031;-46
2022/01/04 02:22:41;;;;;;;14.98;6.45;;;7.80;89.90;;;;;;5112415;28;20031;-46
2022/01/04 02:25:09;;;;;;;19.40;8.45;;;7.80;89.90;;;;;;5094887;28;20036;-45
2022/01/04 02:27:38;;;;;;;18.63;6.25;;;7.90;89.80;;;;;;5100880;28;20052;-46
2022/01/04 02:30:08;;;;;;;22.43;6.60;;;7.90;89.80;;;;;;5106621;28;20115;-45
2022/01/04 02:32:34;;;;;;;20.70;7.03;;;7.90;89.70;;;;;;5113376;27;20030;-45
2022/01/04 02:35:01;;;;;;;20.38;5.95;;;7.90;89.70;;;;;;5117091;27;20028;-45
2022/01/04 02:37:28;;;;;;;19.48;6.72;;;7.90;89.60;;;;;;5089683;28;20061;-45
2022/01/04 02:39:57;;;;;;;20.35;6.47;;;8.00;89.60;;;;;;5100742;28;20051;-48
2022/01/04 02:42:24;;;;;;;19.02;6.47;;;8.00;89.50;;;;;;5099725;28;20028;-45
2022/01/04 02:44:51;;;;;;;21.58;6.85;;;8.00;89.50;;;;;;5107015;28;20047;-44
2022/01/04 02:47:18;;;;;;;17.45;6.63;;;8.10;89.30;;;;;;5107394;28;20063;-46
2022/01/04 02:49:45;;;;;;;16.05;5.80;;;8.10;89.30;;;;;;5100888;28;20096;-47
2022/01/04 02:52:12;;;;;;;17.25;5.75;;;8.10;89.10;;;;;;5114027;28;20410;-45
2022/01/04 02:54:39;;;;;;;14.48;5.53;;;8.20;89.10;;;;;;5111060;28;20528;-45
2022/01/04 02:57:06;;;;;;;21.08;6.25;;;8.10;89.10;;;;;;5094157;28;20092;-46
2022/01/04 02:59:34;;;;;;;19.80;5.78;;;8.20;89.00;;;;;;5109349;28;20410;-45
2022/01/04 03:02:01;;;;;;;19.30;5.53;;;8.20;88.80;;;;;;5108664;28;20062;-45
2022/01/04 03:04:27;;;;;;;17.10;5.95;;;8.20;88.90;;;;;;5095428;28;20028;-45
2022/01/04 03:06:54;;;;;;;15.35;5.22;;;8.10;88.90;;;;;;5100947;28;20056;-46
2022/01/04 03:09:20;;;;;;;20.70;5.85;;;8.10;89.10;;;;;;5111770;28;20470;-46
2022/01/04 03:11:47;;;;;;;21.20;5.80;;;8.20;89.10;;;;;;5099159;28;20038;-45
2022/01/04 03:14:14;;;;;;;24.00;6.43;;;8.10;89.20;;;;;;5113880;28;20034;-46
2022/01/04 03:16:40;;;;;;;19.92;7.15;;;8.20;89.20;;;;;;5093415;28;20578;-45
2022/01/04 03:19:07;;;;;;;25.52;6.03;;;8.20;89.30;;;;;;5078159;28;20357;-49
2022/01/04 03:21:36;;;;;;;25.42;5.45;;;8.10;89.30;;;;;;5094615;28;20032;-46
2022/01/04 03:24:05;;;;;;;26.73;7.37;;;8.10;89.50;;;;;;5113229;28;20036;-46
2022/01/04 03:26:34;;;;;;;21.85;6.30;;;8.10;89.40;;;;;;5095226;28;20127;-48
2022/01/04 03:29:01;;;;;;;16.52;6.15;;;8.10;89.40;;;;;;5094476;28;20058;-47
2022/01/04 03:31:29;;;;;;;19.52;5.60;;;8.10;89.40;;;;;;5100523;28;20047;-49
2022/01/04 03:33:56;;;;;;;18.23;7.05;;;8.00;89.40;;;;;;5111848;28;20031;-46
2022/01/04 03:36:26;;;;;;;20.73;6.53;;;8.00;89.50;;;;;;5112800;28;20047;-46
2022/01/04 03:38:53;;;;;;;;;;;8.10;89.50;;;;;;5095443;28;20024;-48
2022/01/04 03:41:21;;;;;;;28.58;7.50;;;8.10;89.60;;;;;;5086432;28;19912;-45
2022/01/04 03:43:49;;;;;;;27.17;7.50;;;8.10;89.70;;;;;;5077943;28;20126;-44
2022/01/04 03:46:16;;;;;;;26.50;7.72;;;8.10;89.80;;;;;;5104288;28;20329;-45
2022/01/04 03:48:44;;;;;;;17.40;6.63;;;8.10;89.80;;;;;;5095727;28;20028;-48
2022/01/04 03:51:11;;;;;;;27.98;7.47;;;8.00;89.90;;;;;;5109929;28;20096;-46
2022/01/04 03:53:38;;;;;;;25.65;8.35;;;8.10;89.80;;;;;;5109726;28;20518;-46
2022/01/04 03:56:05;;;;;;;21.60;7.50;;;8.00;89.80;;;;;;5108162;28;20056;-45
2022/01/04 03:58:32;;;;;;;18.92;6.82;;;8.00;89.80;;;;;;5097142;28;20036;-44
2022/01/04 04:01:00;;;;;;;25.25;7.60;;;8.00;89.90;;;;;;5104436;28;20440;-44
2022/01/04 04:03:30;;;;;;;20.25;8.05;;;8.00;89.90;;;;;;5113363;28;20070;-46
2022/01/04 04:05:56;;;;;;;20.20;6.95;;;8.00;89.80;;;;;;5102284;28;20028;-45
2022/01/04 04:08:22;;;;;;;15.15;6.95;;;7.90;89.80;;;;;;5089589;28;20054;-44
2022/01/04 04:10:49;;;;;;;20.40;7.60;;;7.90;89.70;;;;;;5094015;28;20043;-45
2022/01/04 04:13:16;;;;;;;20.00;6.10;;;7.90;89.70;;;;;;5099804;28;20103;-44
2022/01/04 04:15:44;;;;;;;10.95;4.90;;;7.90;89.80;;;;;;5100553;28;20036;-47
2022/01/04 04:18:11;;;;;;;18.63;5.55;;;7.90;89.80;;;;;;5113305;28;20081;-47
2022/01/04 04:20:38;;;;;;;16.05;4.88;;;7.90;89.60;;;;;;5095048;28;20030;-45
2022/01/04 04:23:07;;;;;;;18.02;4.93;;;7.80;89.60;;;;;;5112034;28;20517;-48
2022/01/04 04:25:34;;;;;;;18.33;5.83;;;7.90;89.50;;;;;;5089507;28;20039;-47
2022/01/04 04:28:03;;;;;;;13.88;5.35;;;7.80;89.30;;;;;;5092577;28;20266;-46
2022/01/04 04:30:29;;;;;;;26.80;5.18;;;7.80;89.30;;;;;;5093761;28;20042;-44
2022/01/04 04:32:56;;;;;;;16.95;5.88;;;7.80;89.30;;;;;;5118250;27;20656;-45
2022/01/04 04:35:24;;;;;;;15.80;4.40;;;7.80;89.40;;;;;;5105033;28;20136;-45
2022/01/04 04:37:51;;;;;;;11.02;4.20;;;7.80;89.30;;;;;;5081102;28;20020;-45
2022/01/04 04:40:18;;;;;;;11.70;4.75;;;7.80;89.40;;;;;;5112619;28;20102;-46
2022/01/04 04:42:44;;;;;;;18.30;5.68;;;7.80;89.20;;;;;;5099001;28;20468;-45
2022/01/04 04:45:10;;;;;;;12.10;4.38;;;7.80;89.30;;;;;;5115993;28;20079;-48
2022/01/04 04:47:37;;;;;;;15.70;7.32;;;7.80;89.40;;;;;;5108772;28;20072;-46
2022/01/04 04:50:06;;;;;;;18.13;4.65;;;7.80;89.40;;;;;;5078546;28;20094;-43
2022/01/04 04:52:35;;;;;;;12.65;4.57;;;7.80;89.40;;;;;;5102131;28;20515;-43
2022/01/04 04:55:05;;;;;;;15.00;5.18;;;7.80;89.50;;;;;;5114732;28;20028;-44
2022/01/04 04:57:32;;;;;;;18.25;5.75;;;7.80;89.50;;;;;;5094524;28;20080;-44
2022/01/04 04:59:59;;;;;;;32.20;8.75;;;7.70;89.50;;;;;;5108197;28;20032;-46
2022/01/04 05:02:25;;;;;;;22.92;8.02;;;7.70;89.60;;;;;;5113153;28;20027;-46
2022/01/04 05:04:52;;;;;;;21.48;6.22;;;7.70;89.80;;;;;;5097064;28;20055;-46
2022/01/04 05:07:18;;;;;;;21.08;6.82;;;7.70;89.80;;;;;;5078161;28;20032;-47
2022/01/04 05:09:44;;;;;;;22.10;5.43;;;7.70;89.80;;;;;;5103904;28;20363;-44
2022/01/04 05:12:11;;;;;;;15.68;4.57;;;7.60;89.80;;;;;;5078489;28;20036;-48
2022/01/04 05:14:39;;;;;;;11.50;4.63;;;7.60;89.80;;;;;;5095428;28;20024;-45
2022/01/04 05:17:05;;;;;;;15.68;5.18;;;7.70;89.70;;;;;;5112444;28;20400;-43
2022/01/04 05:19:32;;;;;;;21.10;6.07;;;7.70;89.80;;;;;;5116109;28;20610;-46
2022/01/04 05:21:59;;;;;;;13.18;5.18;;;7.70;89.70;;;;;;5111497;28;20480;-48
2022/01/04 05:24:28;;;;;;;16.30;5.45;;;7.70;89.70;;;;;;5095415;28;20016;-45
2022/01/04 05:26:54;;;;;;;18.17;5.97;;;7.70;89.80;;;;;;5113584;28;20039;-49
2022/01/04 05:29:21;;;;;;;13.50;5.60;;;7.70;89.80;;;;;;5112556;28;20051;-45
2022/01/04 05:31:49;;;;;;;15.07;6.35;;;7.70;89.90;;;;;;5109745;28;20043;-48
2022/01/04 05:34:20;;;;;;;12.80;7.85;;;7.70;90.00;;;;;;5116504;27;20051;-45
2022/01/04 05:36:47;;;;;;;19.02;7.75;;;7.70;90.10;;;;;;5096354;28;20032;-45
2022/01/04 05:39:14;;;;;;;18.73;7.50;;;7.70;90.30;;;;;;5086947;28;20031;-44
2022/01/04 05:41:41;;;;;;;15.85;7.70;;;7.70;90.40;;;;;;5096064;28;20073;-47
2022/01/04 05:44:08;;;;;;;19.77;8.32;;;7.80;90.60;;;;;;5095140;28;20072;-49
2022/01/04 05:46:35;;;;;;;22.88;7.95;;;7.80;90.60;;;;;;5110683;28;20114;-47
2022/01/04 05:49:05;;;;;;;18.85;9.23;;;7.80;90.60;;;;;;5110509;28;20349;-50
2022/01/04 05:51:31;;;;;;;18.02;7.18;;;7.80;90.50;;;;;;5110267;28;20118;-51
2022/01/04 05:54:01;;;;;;;16.58;8.68;;;7.70;90.30;;;;;;5113199;28;20027;-48
2022/01/04 05:56:28;;;;;;;13.27;6.47;;;7.70;90.40;;;;;;5076832;28;20367;-48
2022/01/04 05:58:54;;;;;;;18.55;7.47;;;7.70;90.20;;;;;;5114172;28;20096;-50
2022/01/04 06:01:24;;;;;;;16.42;8.18;;;7.60;90.20;;;;;;5110626;28;20119;-50
2022/01/04 06:03:51;;;;;;;19.08;7.47;;;7.60;90.40;;;;;;5114749;28;20016;-51
2022/01/04 06:06:18;;;;;;;15.25;8.57;;;7.70;90.50;;;;;;5113529;28;20031;-54
2022/01/04 06:08:45;;;;;;;19.73;9.82;;;7.60;90.60;;;;;;5113854;28;20059;-54
2022/01/04 06:11:30;;;;;;;22.80;9.00;;;7.60;90.60;;;;;;5112808;28;20023;-53
2022/01/04 06:14:57;;;;;;;18.95;8.63;;;7.60;90.70;;;;;;5111445;28;20310;-53
2022/01/04 06:16:53;;;;;;;19.02;9.93;;;7.70;90.80;;;;;;5095272;28;20046;-50
2022/01/04 06:19:20;;;;;;;20.88;9.52;;;7.60;90.90;;;;;;5095616;28;20633;-51
2022/01/04 06:21:47;;;;;;;21.15;9.80;;;7.70;90.90;;;;;;5101469;28;20054;-52
2022/01/04 06:24:14;;;;;;;23.38;10.43;;;7.70;90.90;;;;;;5095824;28;21347;-49
2022/01/04 06:26:41;;;;;;;26.10;10.38;;;7.70;90.90;;;;;;5108544;28;20024;-51
2022/01/04 06:29:09;;;;;;;28.48;11.48;;;7.70;90.90;;;;;;5074614;28;20023;-52
2022/01/04 06:31:36;;;;;;;27.17;11.10;;;7.70;91.00;;;;;;5108295;28;20035;-47
2022/01/04 06:34:03;;;;;;;34.50;11.05;;;7.70;91.10;;;;;;5110765;27;20038;-49
2022/01/04 06:36:30;;;;;;;24.23;10.65;;;7.70;91.10;;;;;;5103785;28;20036;-49
2022/01/04 06:39:00;;;;;;;26.52;11.85;;;7.80;91.20;;;;;;5108129;28;20384;-48
2022/01/04 06:41:27;;;;;;;;;;;7.80;91.20;;;;;;5113080;28;20032;-50
2022/01/04 06:43:53;;;;;;;26.85;12.13;;;7.80;91.20;;;;;;5112765;28;19911;-53
2022/01/04 06:46:20;;;;;;;23.48;11.13;;;7.80;91.20;;;;;;5112734;28;20027;-54
2022/01/04 06:48:47;;;;;;;21.33;10.85;;;7.80;91.10;;;;;;5096535;28;20032;-51
2022/01/04 06:51:12;;;;;;;31.20;12.95;;;7.70;91.10;;;;;;5104417;28;20027;-53
2022/01/04 06:53:39;;;;;;;25.58;11.63;;;7.80;91.10;;;;;;5085076;28;20345;-52
2022/01/04 06:56:07;;;;;;;20.80;10.07;;;7.70;91.10;;;;;;5107157;28;20247;-53
2022/01/04 06:58:38;;;;;;;26.40;11.18;;;7.80;91.10;;;;;;5106919;28;20441;-52
2022/01/04 07:01:04;;;;;;;23.05;11.68;;;7.80;91.00;;;;;;5075254;28;20087;-53
2022/01/04 07:03:31;;;;;;;22.17;12.40;;;7.80;91.10;;;;;;5107085;28;20434;-50
2022/01/04 07:05:58;;;;;;;26.13;9.82;;;7.80;91.10;;;;;;5111576;28;20059;-51
2022/01/04 07:08:25;;;;;;;24.23;9.90;;;7.80;91.00;;;;;;5094379;28;20065;-50
2022/01/04 07:10:52;;;;;;;24.50;9.77;;;7.80;91.00;;;;;;5093185;28;20109;-51
2022/01/04 07:13:17;;;;;;;30.05;11.63;;;7.80;91.00;;;;;;5100450;28;20055;-50
2022/01/04 07:15:46;;;;;;;26.50;10.35;;;7.80;91.00;;;;;;5085040;28;20729;-48
2022/01/04 07:18:13;;;;;;;24.45;9.77;;;7.80;91.00;;;;;;5101822;28;20035;-51
2022/01/04 07:20:40;;;;;;;26.08;11.20;;;7.80;90.90;;;;;;5098777;28;20367;-49
2022/01/04 07:23:07;;;;;;;19.33;11.00;;;7.80;90.80;;;;;;5083674;28;20040;-47
2022/01/04 07:25:32;;;;;;;26.50;10.90;;;7.80;90.80;;;;;;5092754;28;20045;-49
2022/01/04 07:27:59;;;;;;;24.90;10.75;;;7.80;90.80;;;;;;5105301;27;20035;-53
2022/01/04 07:30:27;;;;;;;29.27;11.48;;;7.80;91.00;;;;;;5102610;27;20108;-48
2022/01/04 07:32:52;;;;;;;30.00;11.85;;;7.80;90.90;;;;;;5094584;28;20040;-49
2022/01/04 07:35:20;;;;;;;23.52;11.20;;;7.80;91.00;;;;;;5078288;28;20448;-51
2022/01/04 07:37:46;;;;;;;30.75;14.50;;;7.90;91.00;;;;;;5098041;28;20020;-51
2022/01/04 07:40:13;;;;;;;24.88;12.57;;;7.80;91.00;;;;;;5082723;28;20028;-51
2022/01/04 07:42:39;;;;;;;28.45;13.65;;;7.80;91.10;;;;;;5103244;28;20860;-50
2022/01/04 07:45:05;;;;;;;27.33;12.07;;;7.80;91.10;;;;;;5089755;28;20058;-52
2022/01/04 07:47:31;;;;;;;25.65;12.68;;;7.90;91.10;;;;;;5087446;28;20046;-49
2022/01/04 07:49:58;;;;;;;24.73;12.48;;;7.80;91.20;;;;;;5099359;28;20043;-52
2022/01/04 07:52:25;;;;;;;29.83;13.57;;;7.90;91.10;;;;;;5078119;28;20077;-52
2022/01/04 07:54:53;;;;;;;25.50;13.90;;;7.90;91.20;;;;;;5092421;28;20050;-58
2022/01/04 07:57:19;;;;;;;25.02;12.90;;;7.90;91.10;;;;;;5070320;28;20051;-55
2022/01/04 07:59:46;;;;;;;29.13;13.27;;;7.80;91.00;;;;;;5084685;28;20043;-55
2022/01/04 08:02:12;;;;;;;26.05;12.75;;;7.80;90.90;;;;;;5104864;28;20633;-55
2022/01/04 08:04:39;;;;;;;26.40;12.68;;;7.70;91.00;;;;;;5096188;28;20032;-53
2022/01/04 08:07:04;;;;;;;22.15;11.48;;;7.70;90.90;;;;;;5109532;28;20364;-53
2022/01/04 08:09:32;;;;;;;18.50;10.98;;;7.70;90.90;;;;;;5110061;28;20243;-52
2022/01/04 08:11:59;;;;;;;27.08;12.60;;;7.70;90.90;;;;;;5112708;28;20032;-54
2022/01/04 08:14:24;;;;;;;28.02;14.05;;;7.70;91.00;;;;;;5113537;28;20031;-52
2022/01/04 08:16:50;;;;;;;26.67;13.15;;;7.70;90.90;;;;;;5115050;28;20051;-54
2022/01/04 08:19:15;;;;;;;24.73;12.18;;;7.80;91.00;;;;;;5112780;28;20455;-49
2022/01/04 08:21:42;;;;;;;28.63;11.60;;;7.80;91.00;;;;;;5113667;28;20116;-50
2022/01/04 08:24:08;;;;;;;22.88;12.63;;;7.80;91.00;;;;;;5113020;28;20027;-54
2022/01/04 08:26:36;;;;;;;21.60;11.15;;;7.90;90.90;;;;;;5114952;28;20028;-53
2022/01/04 08:29:01;;;;;;;25.05;11.10;;;7.80;90.80;;;;;;5114874;28;20084;-54
2022/01/04 08:31:28;;;;;;;21.35;12.85;;;7.90;90.90;;;;;;5112516;28;20032;-49
2022/01/04 08:33:54;;;;;;;26.77;12.35;;;7.90;90.70;;;;;;5110880;28;20039;-52
2022/01/04 08:36:27;;;;;;;22.38;12.25;;;7.90;90.70;;;;;;5109843;28;20084;-49
2022/01/04 08:38:56;;;;;;;23.40;11.25;;;7.90;90.60;;;;;;5114540;28;20081;-49
2022/01/04 08:41:26;;;;;;;36.15;12.55;;;7.90;90.60;;;;;;5093039;28;20146;-51
2022/01/04 08:43:55;;;;;;;28.75;13.27;;;7.90;90.60;;;;;;5114165;28;20051;-50
2022/01/04 08:46:23;;;;;;;25.40;14.60;;;7.90;90.60;;;;;;5107932;28;20024;-51
2022/01/04 08:48:48;;;;;;;24.60;12.63;;;7.90;90.60;;;;;;5105962;28;20036;-50
2022/01/04 08:51:14;;;;;;;31.70;13.02;;;7.90;90.60;;;;;;5107060;28;20122;-50
2022/01/04 08:53:43;;;;;;;19.88;13.15;;;7.90;90.60;;;;;;5097674;28;20031;-46
2022/01/04 08:56:10;;;;;;;25.52;12.45;;;7.90;90.60;;;;;;5066595;28;20040;-48
2022/01/04 08:58:35;;;;;;;24.42;12.57;;;7.90;90.60;;;;;;5107204;27;20046;-49
2022/01/04 09:01:03;;;;;;;25.15;11.52;;;7.90;90.60;;;;;;5101498;28;20111;-49
2022/01/04 09:03:30;;;;;;;28.05;12.30;;;7.90;90.60;;;;;;5094804;28;20445;-53
2022/01/04 09:06:00;;;;;;;30.00;10.35;;;7.90;90.60;;;;;;5089322;28;20121;-54
2022/01/04 09:08:27;;;;;;;19.17;10.35;;;7.90;90.50;;;;;;5113123;28;20043;-53
2022/01/04 09:10:54;;;;;;;20.05;10.25;;;7.90;90.50;;;;;;5114214;28;20038;-57
2022/01/04 09:13:25;;;;;;;22.50;10.38;;;7.90;90.40;;;;;;5110352;28;20075;-62
2022/01/04 09:21:17;;;;;;;22.33;9.35;;;7.90;90.50;;;;;;5113668;28;20039;-62
2022/01/04 09:23:46;;;;;;;23.15;10.57;;;7.80;90.50;;;;;;5112478;28;20058;-62
2022/01/04 09:26:16;;;;;;;15.73;7.70;;;7.80;90.60;;;;;;5094616;28;20043;-61
2022/01/04 09:28:43;;;;;;;11.00;3.85;;;7.70;90.90;;;;;;5095283;28;20118;-61
2022/01/04 09:31:09;;;;;;;6.10;2.63;;;7.50;90.90;;;;;;5092266;28;20058;-57
2022/01/04 09:33:36;;;;;;;5.82;2.08;;;7.40;90.80;;;;;;5112842;28;20125;-55
2022/01/04 09:36:03;;;;;;;4.22;1.08;;;7.20;90.70;;;;;;5114250;28;20437;-51
2022/01/04 09:38:33;;;;;;;2.55;0.80;;;7.10;90.60;;;;;;5114425;27;20114;-56
2022/01/04 09:40:59;;;;;;;9.02;1.40;;;7.10;90.90;;;;;;5090626;28;20027;-54
2022/01/04 09:43:27;;;;;;;7.20;1.10;;;7.10;91.10;;;;;;5113189;28;20031;-54
2022/01/04 09:45:55;;;;;;;9.45;1.63;;;7.10;91.10;;;;;;5113197;28;20052;-55
2022/01/04 09:48:22;;;;;;;12.07;1.58;;;7.10;91.00;;;;;;5107848;28;20039;-55
2022/01/04 09:50:49;;;;;;;4.60;1.20;;;7.10;91.00;;;;;;5101797;28;20471;-54
2022/01/04 09:53:20;;;;;;;6.32;1.00;;;7.00;90.60;;;;;;5095292;28;20039;-52
2022/01/04 09:55:54;;;;;;;4.80;1.25;;;6.90;90.50;;;;;;5111223;28;20027;-48
2022/01/04 09:58:26;;;;;;;6.45;0.98;;;6.90;90.60;;;;;;5090265;28;20110;-54
2022/01/04 10:00:52;;;;;;;4.93;0.73;;;6.90;90.50;;;;;;5073075;28;20028;-49
2022/01/04 10:03:29;;;;;;;4.15;0.55;;;6.90;90.50;;;;;;5113903;28;20056;-50
2022/01/04 10:06:17;;;;;;;3.90;0.75;;;6.80;90.10;;;;;;5112484;28;20027;-50
2022/01/04 10:09:06;;;;;;;4.20;0.52;;;6.70;89.80;;;;;;5089510;28;20373;-51
2022/01/04 10:11:33;;;;;;;4.45;0.80;;;6.60;89.90;;;;;;5107590;28;20039;-46
2022/01/04 10:14:26;;;;;;;4.45;1.13;;;6.70;90.00;;;;;;5091632;28;20027;-50
2022/01/04 10:17:07;;;;;;;2.50;0.68;;;6.70;90.30;;;;;;5095512;28;20039;-46
2022/01/04 10:19:36;;;;;;;6.30;0.85;;;6.70;90.00;;;;;;5097248;28;20028;-50
2022/01/04 10:22:16;;;;;;;3.97;0.93;;;6.60;89.90;;;;;;5091898;28;20027;-47
2022/01/04 10:24:43;;;;;;;3.83;0.63;;;6.60;89.90;;;;;;5092226;28;20036;-46
2022/01/04 10:27:28;;;;;;;3.28;0.80;;;6.60;90.10;;;;;;5104324;28;20034;-49
2022/01/04 10:30:15;;;;;;;9.13;1.20;;;6.40;90.20;;;;;;5099978;28;20495;-46
2022/01/04 10:32:51;;;;;;;2.80;0.90;;;6.40;90.10;;;;;;5106979;28;20741;-47
2022/01/04 10:35:36;;;;;;;4.00;0.82;;;6.30;90.10;;;;;;5104835;28;20391;-46
2022/01/04 10:38:23;;;;;;;6.00;1.27;;;6.30;90.20;;;;;;5104381;27;20076;-48
2022/01/04 10:40:56;;;;;;;5.55;1.00;;;6.20;90.20;;;;;;5107896;28;20111;-48
2022/01/04 10:43:27;;;;;;;2.85;0.80;;;6.20;90.30;;;;;;5110689;28;20623;-46
2022/01/04 10:45:55;;;;;;;3.15;0.73;;;6.10;90.50;;;;;;5095440;28;20417;-45
2022/01/04 10:48:41;;;;;;;3.97;0.98;;;6.10;90.70;;;;;;5111370;28;20118;-46
2022/01/04 10:51:09;;;;;;;4.90;0.60;;;6.00;91.00;;;;;;5111576;28;20034;-50
2022/01/04 10:53:47;;;;;;;8.73;1.23;;;5.90;91.00;;;;;;5094964;28;20408;-47
2022/01/04 10:56:22;;;;;;;4.35;0.82;;;6.00;91.20;;;;;;5107708;28;20019;-49
2022/01/04 10:58:51;;;;;;;3.75;0.88;;;5.90;91.20;;;;;;5086651;28;20034;-51
2022/01/04 11:01:20;;;;;;;1.88;0.40;;;5.90;91.40;;;;;;5107938;28;20023;-58
2022/01/04 11:03:51;;;;;;;1.88;0.75;;;5.90;91.50;;;;;;5112077;28;20097;-59
2022/01/04 11:06:29;;;;;;;5.80;0.95;;;5.80;91.50;;;;;;5110852;28;20070;-58
2022/01/04 11:08:57;;;;;;;3.70;0.63;;;5.70;91.40;;;;;;5106903;28;20028;-54
2022/01/04 11:11:25;;;;;;;4.03;0.60;;;5.60;91.20;;;;;;5108812;28;20505;-57
2022/01/04 11:13:52;;;;;;;5.68;0.95;;;5.60;91.40;;;;;;5093110;28;20035;-57
2022/01/04 11:16:23;;;;;;;5.78;1.35;;;5.60;91.60;;;;;;5086624;28;20028;-57
2022/01/04 11:18:57;;;;;;;8.32;1.23;;;5.60;91.60;;;;;;5094418;28;20032;-54
2022/01/04 11:21:31;;;;;;;5.70;1.10;;;5.60;91.40;;;;;;5105893;28;20102;-55
2022/01/04 11:23:58;;;;;;;9.88;1.70;;;5.50;91.30;;;;;;5091857;28;20028;-55
2022/01/04 11:26:26;;;;;;;7.88;1.23;;;5.50;91.30;;;;;;5107027;28;20104;-55
2022/01/04 11:28:54;;;;;;;6.30;1.63;;;5.60;91.20;;;;;;5111023;28;20034;-54
2022/01/04 11:31:31;;;;;;;8.02;1.10;;;5.60;91.30;;;;;;5109234;28;20046;-51
2022/01/04 11:34:22;;;;;;;8.05;1.23;;;5.60;91.00;;;;;;5111776;28;20102;-49
2022/01/04 11:36:51;;;;;;;6.05;1.30;;;5.60;90.90;;;;;;5112514;28;20099;-53
2022/01/04 11:39:54;;;;;;;8.52;1.73;;;5.40;90.20;;;;;;5111872;28;20020;-51
2022/01/04 11:42:34;;;;;;;6.82;1.70;;;5.40;90.40;;;;;;5111981;28;20031;-50
2022/01/04 11:45:00;;;;;;;;;;;5.50;90.30;;;;;;5112399;28;20193;-51
2022/01/04 11:47:31;;;;;;;7.57;1.23;;;5.70;90.00;;;;;;5115943;28;20019;-48
2022/01/04 11:50:23;;;;;;;7.13;1.02;;;5.70;89.40;;;;;;5115159;28;20057;-50
2022/01/04 11:52:56;;;;;;;10.27;1.48;;;5.80;88.90;;;;;;5105344;28;20026;-48
2022/01/04 11:55:32;;;;;;;6.13;1.42;;;5.90;89.00;;;;;;5097020;28;20045;-47
2022/01/04 11:58:03;;;;;;;8.23;1.00;;;5.90;87.50;;;;;;5116333;28;20059;-46
2022/01/04 12:00:30;;;;;;;8.43;1.30;;;5.90;87.20;;;;;;5096500;28;20375;-45
2022/01/04 12:03:15;;;;;;;5.28;1.13;;;5.90;87.00;;;;;;5111714;28;20024;-45
2022/01/04 12:06:01;;;;;;;9.15;1.05;;;6.00;86.60;;;;;;5114781;28;20039;-49
2022/01/04 12:08:52;;;;;;;9.38;1.13;;;6.10;86.10;;;;;;5113047;28;20032;-49
2022/01/04 12:11:28;;;;;;;5.13;0.82;;;6.00;86.00;;;;;;5109767;28;20023;-46
2022/01/04 12:13:59;;;;;;;6.82;0.98;;;6.10;86.10;;;;;;5112891;27;20019;-45
2022/01/04 12:16:39;;;;;;;10.68;1.08;;;6.10;86.10;;;;;;5107036;28;20476;-44
2022/01/04 12:19:07;;;;;;;10.02;1.17;;;6.00;85.40;;;;;;5111029;28;20039;-50
2022/01/04 12:22:00;;;;;;;11.50;1.25;;;5.90;84.60;;;;;;5098386;28;20464;-44
2022/01/04 12:24:45;;;;;;;4.47;0.80;;;6.00;84.60;;;;;;5089824;28;20372;-45
2022/01/04 12:27:13;;;;;;;6.95;1.10;;;6.10;84.60;;;;;;5103858;28;20059;-46
2022/01/04 12:29:40;;;;;;;5.40;0.77;;;6.20;84.30;;;;;;5116084;28;20332;-44
2022/01/04 12:32:18;;;;;;;3.20;0.70;;;6.20;84.00;;;;;;5111553;28;20039;-46
2022/01/04 12:34:57;;;;;;;5.97;0.85;;;6.20;84.20;;;;;;5096490;28;20034;-43
2022/01/04 12:37:28;;;;;;;7.07;1.10;;;6.20;83.60;;;;;;5108585;28;20133;-44
2022/01/04 12:39:56;;;;;;;10.07;1.10;;;6.20;83.80;;;;;;5112411;28;20091;-43
2022/01/04 12:42:23;;;;;;;4.28;0.98;;;6.20;83.50;;;;;;5092348;28;20043;-47
2022/01/04 12:44:52;;;;;;;5.38;1.05;;;6.10;82.90;;;;;;5093765;28;20503;-45
2022/01/04 12:47:19;;;;;;;11.63;2.28;;;6.10;82.70;;;;;;5112189;28;20159;-44
2022/01/04 12:49:44;;;;;;;11.18;1.30;;;6.00;83.20;;;;;;5113563;28;20047;-49
2022/01/04 12:52:17;;;;;;;8.52;2.10;;;6.00;82.60;;;;;;5110918;28;20457;-43
2022/01/04 12:54:46;;;;;;;8.70;2.70;;;6.10;82.60;;;;;;5115500;28;20571;-46
2022/01/04 12:57:17;;;;;;;11.77;3.97;;;6.10;82.20;;;;;;5114482;28;20054;-45
2022/01/04 12:59:46;;;;;;;19.63;7.55;;;6.00;82.60;;;;;;5092895;28;20028;-45
2022/01/04 13:02:24;;;;;;;9.18;2.60;;;6.10;82.60;;;;;;5089328;28;20363;-45
2022/01/04 13:05:05;;;;;;;9.05;2.15;;;6.00;81.90;;;;;;5108246;28;20032;-49
2022/01/04 13:07:37;;;;;;;9.95;2.30;;;6.20;83.00;;;;;;5113735;28;20348;-43